sensor_id;sensor_type;location;lat;lon;timestamp;temperature;humidity
25570;DHT22;17955;45.542;9.238;2022-08-16T00:01:49;23.20;99.90
25570;DHT22;17955;45.542;9.238;2022-08-16T00:04:16;23.10;99.90
25570;DHT22;17955;45.542;9.238;2022-08-16T00:06:43;23.20;99.90
25570;DHT22;17955;45.542;9.238;2022-08-16T00:09:10;23.10;99.90
25570;DHT22;17955;45.542;9.238;2022-08-16T00:11:40;23.30;99.90
25570;DHT22;17955;45.542;9.238;2022-08-16T00:14:10;23.10;99.90
25570;DHT22;17955;45.542;9.238;2022-08-16T00:16:38;23.00;99.90
25570;DHT22;17955;45.542;9.238;2022-08-16T00:19:05;23.10;99.90
25570;DHT22;17955;45.542;9.238;2022-08-16T00:21:33;23.10;99.90
25570;DHT22;17955;45.542;9.238;2022-08-16T00:24:00;23.20;99.90
25570;DHT22;17955;45.542;9.238;2022-08-16T00:26:27;23.40;99.90
25570;DHT22;17955;45.542;9.238;2022-08-16T00:28:55;23.30;99.90
25570;DHT22;17955;45.542;9.238;2022-08-16T00:31:22;23.30;99.90
25570;DHT22;17955;45.542;9.238;2022-08-16T00:33:49;23.20;99.90
25570;DHT22;17955;45.542;9.238;2022-08-16T00:36:17;23.00;99.90
25570;DHT22;17955;45.542;9.238;2022-08-16T00:38:44;22.90;99.90
25570;DHT22;17955;45.542;9.238;2022-08-16T00:41:11;22.90;99.90
25570;DHT22;17955;45.542;9.238;2022-08-16T00:43:39;23.00;99.90
25570;DHT22;17955;45.542;9.238;2022-08-16T00:48:40;22.70;99.90
25570;DHT22;17955;45.542;9.238;2022-08-16T00:51:10;22.60;99.90
25570;DHT22;17955;45.542;9.238;2022-08-16T00:53:37;22.60;99.90
25570;DHT22;17955;45.542;9.238;2022-08-16T00:56:06;22.90;99.90
25570;DHT22;17955;45.542;9.238;2022-08-16T00:58:36;22.60;99.90
25570;DHT22;17955;45.542;9.238;2022-08-16T01:01:07;22.60;99.90
25570;DHT22;17955;45.542;9.238;2022-08-16T01:03:35;22.70;99.90
25570;DHT22;17955;45.542;9.238;2022-08-16T01:06:03;22.70;99.90
25570;DHT22;17955;45.542;9.238;2022-08-16T01:08:33;22.50;99.90
25570;DHT22;17955;45.542;9.238;2022-08-16T01:11:01;22.50;99.90
25570;DHT22;17955;45.542;9.238;2022-08-16T01:13:31;22.50;99.90
25570;DHT22;17955;45.542;9.238;2022-08-16T01:16:00;22.50;99.90
25570;DHT22;17955;45.542;9.238;2022-08-16T01:18:32;22.50;99.90
25570;DHT22;17955;45.542;9.238;2022-08-16T01:21:08;22.40;99.90
25570;DHT22;17955;45.542;9.238;2022-08-16T01:23:53;22.40;99.90
25570;DHT22;17955;45.542;9.238;2022-08-16T01:26:22;22.30;99.90
25570;DHT22;17955;45.542;9.238;2022-08-16T01:28:49;22.30;99.90
25570;DHT22;17955;45.542;9.238;2022-08-16T01:31:17;22.30;99.90
25570;DHT22;17955;45.542;9.238;2022-08-16T01:33:46;22.20;99.90
25570;DHT22;17955;45.542;9.238;2022-08-16T01:36:13;22.60;99.90
25570;DHT22;17955;45.542;9.238;2022-08-16T01:38:45;22.00;99.90
25570;DHT22;17955;45.542;9.238;2022-08-16T01:41:15;22.00;99.90
25570;DHT22;17955;45.542;9.238;2022-08-16T01:43:44;22.00;99.90
25570;DHT22;17955;45.542;9.238;2022-08-16T01:51:15;22.10;99.90
25570;DHT22;17955;45.542;9.238;2022-08-16T01:53:45;22.00;99.90
25570;DHT22;17955;45.542;9.238;2022-08-16T01:56:23;22.30;99.90
25570;DHT22;17955;45.542;9.238;2022-08-16T01:58:51;22.20;99.90
25570;DHT22;17955;45.542;9.238;2022-08-16T02:01:19;22.30;99.90
25570;DHT22;17955;45.542;9.238;2022-08-16T02:03:46;22.20;99.90
25570;DHT22;17955;45.542;9.238;2022-08-16T02:06:13;22.40;99.90
25570;DHT22;17955;45.542;9.238;2022-08-16T02:08:41;22.40;99.90
25570;DHT22;17955;45.542;9.238;2022-08-16T02:11:09;22.30;99.90
25570;DHT22;17955;45.542;9.238;2022-08-16T02:13:39;22.60;99.90
25570;DHT22;17955;45.542;9.238;2022-08-16T02:16:07;22.30;99.90
25570;DHT22;17955;45.542;9.238;2022-08-16T02:18:34;22.20;99.90
25570;DHT22;17955;45.542;9.238;2022-08-16T02:21:02;22.30;99.90
25570;DHT22;17955;45.542;9.238;2022-08-16T02:23:31;22.30;99.90
25570;DHT22;17955;45.542;9.238;2022-08-16T02:25:59;22.20;99.90
25570;DHT22;17955;45.542;9.238;2022-08-16T02:28:28;22.20;99.90
25570;DHT22;17955;45.542;9.238;2022-08-16T02:30:58;22.50;99.90
25570;DHT22;17955;45.542;9.238;2022-08-16T02:33:26;22.00;99.90
25570;DHT22;17955;45.542;9.238;2022-08-16T02:35:53;22.10;99.90
25570;DHT22;17955;45.542;9.238;2022-08-16T02:38:21;22.20;99.90
25570;DHT22;17955;45.542;9.238;2022-08-16T02:40:48;22.10;99.90
25570;DHT22;17955;45.542;9.238;2022-08-16T02:43:16;22.10;99.90
25570;DHT22;17955;45.542;9.238;2022-08-16T02:45:45;22.10;99.90
25570;DHT22;17955;45.542;9.238;2022-08-16T02:48:12;22.30;99.90
25570;DHT22;17955;45.542;9.238;2022-08-16T02:50:39;22.10;99.90
25570;DHT22;17955;45.542;9.238;2022-08-16T02:53:07;22.10;99.90
25570;DHT22;17955;45.542;9.238;2022-08-16T02:55:34;22.10;99.90
25570;DHT22;17955;45.542;9.238;2022-08-16T02:58:01;22.40;99.90
25570;DHT22;17955;45.542;9.238;2022-08-16T03:00:30;22.00;99.90
25570;DHT22;17955;45.542;9.238;2022-08-16T03:02:59;22.20;99.90
25570;DHT22;17955;45.542;9.238;2022-08-16T03:05:27;22.20;99.90
25570;DHT22;17955;45.542;9.238;2022-08-16T03:07:54;22.10;99.90
25570;DHT22;17955;45.542;9.238;2022-08-16T03:10:21;22.10;99.90
25570;DHT22;17955;45.542;9.238;2022-08-16T03:12:48;22.10;99.90
25570;DHT22;17955;45.542;9.238;2022-08-16T03:15:16;22.00;99.90
25570;DHT22;17955;45.542;9.238;2022-08-16T03:17:44;22.00;99.90
25570;DHT22;17955;45.542;9.238;2022-08-16T03:20:14;22.10;99.90
25570;DHT22;17955;45.542;9.238;2022-08-16T03:22:43;21.90;99.90
25570;DHT22;17955;45.542;9.238;2022-08-16T03:25:13;22.00;99.90
25570;DHT22;17955;45.542;9.238;2022-08-16T03:27:51;21.90;99.90
25570;DHT22;17955;45.542;9.238;2022-08-16T03:30:23;21.90;99.90
25570;DHT22;17955;45.542;9.238;2022-08-16T03:32:57;22.00;99.90
25570;DHT22;17955;45.542;9.238;2022-08-16T03:35:31;21.90;99.90
25570;DHT22;17955;45.542;9.238;2022-08-16T03:38:02;21.80;99.90
25570;DHT22;17955;45.542;9.238;2022-08-16T03:40:41;21.80;99.90
25570;DHT22;17955;45.542;9.238;2022-08-16T03:43:10;21.80;99.90
25570;DHT22;17955;45.542;9.238;2022-08-16T03:45:39;21.80;99.90
25570;DHT22;17955;45.542;9.238;2022-08-16T03:48:07;21.80;99.90
25570;DHT22;17955;45.542;9.238;2022-08-16T03:50:37;21.70;99.90
25570;DHT22;17955;45.542;9.238;2022-08-16T03:53:05;21.80;99.90
25570;DHT22;17955;45.542;9.238;2022-08-16T03:55:33;21.80;99.90
25570;DHT22;17955;45.542;9.238;2022-08-16T03:58:00;21.70;99.90
25570;DHT22;17955;45.542;9.238;2022-08-16T04:00:29;21.70;99.90
25570;DHT22;17955;45.542;9.238;2022-08-16T04:03:00;21.90;99.90
25570;DHT22;17955;45.542;9.238;2022-08-16T04:05:33;21.70;99.90
25570;DHT22;17955;45.542;9.238;2022-08-16T04:08:04;21.70;99.90
25570;DHT22;17955;45.542;9.238;2022-08-16T04:10:31;21.70;99.90
25570;DHT22;17955;45.542;9.238;2022-08-16T04:12:58;21.80;99.90
25570;DHT22;17955;45.542;9.238;2022-08-16T04:15:26;21.70;99.90
25570;DHT22;17955;45.542;9.238;2022-08-16T04:18:08;21.80;99.90
25570;DHT22;17955;45.542;9.238;2022-08-16T04:20:35;21.80;99.90
25570;DHT22;17955;45.542;9.238;2022-08-16T04:23:06;21.70;99.90
25570;DHT22;17955;45.542;9.238;2022-08-16T04:25:36;22.00;99.90
25570;DHT22;17955;45.542;9.238;2022-08-16T04:28:04;21.30;99.90
25570;DHT22;17955;45.542;9.238;2022-08-16T04:30:31;21.80;99.90
25570;DHT22;17955;45.542;9.238;2022-08-16T04:32:59;21.50;99.90
25570;DHT22;17955;45.542;9.238;2022-08-16T04:35:28;22.00;99.90
25570;DHT22;17955;45.542;9.238;2022-08-16T04:37:57;21.60;99.90
25570;DHT22;17955;45.542;9.238;2022-08-16T04:40:30;21.60;99.90
25570;DHT22;17955;45.542;9.238;2022-08-16T04:42:57;21.50;99.90
25570;DHT22;17955;45.542;9.238;2022-08-16T04:45:28;21.70;99.90
25570;DHT22;17955;45.542;9.238;2022-08-16T04:47:55;21.70;99.90
25570;DHT22;17955;45.542;9.238;2022-08-16T04:50:26;21.80;99.90
25570;DHT22;17955;45.542;9.238;2022-08-16T04:52:57;21.70;99.90
25570;DHT22;17955;45.542;9.238;2022-08-16T04:55:27;21.70;99.90
25570;DHT22;17955;45.542;9.238;2022-08-16T04:57:56;22.10;99.90
25570;DHT22;17955;45.542;9.238;2022-08-16T05:00:25;21.90;99.90
25570;DHT22;17955;45.542;9.238;2022-08-16T05:02:53;22.00;99.90
25570;DHT22;17955;45.542;9.238;2022-08-16T05:07:49;22.20;99.90
25570;DHT22;17955;45.542;9.238;2022-08-16T05:10:18;22.20;99.90
25570;DHT22;17955;45.542;9.238;2022-08-16T05:12:45;22.00;99.90
25570;DHT22;17955;45.542;9.238;2022-08-16T05:15:13;22.10;99.90
25570;DHT22;17955;45.542;9.238;2022-08-16T05:17:41;22.20;99.90
25570;DHT22;17955;45.542;9.238;2022-08-16T05:20:12;22.10;99.90
25570;DHT22;17955;45.542;9.238;2022-08-16T05:22:39;22.10;99.90
25570;DHT22;17955;45.542;9.238;2022-08-16T05:25:11;22.20;99.90
25570;DHT22;17955;45.542;9.238;2022-08-16T05:27:45;22.30;99.90
25570;DHT22;17955;45.542;9.238;2022-08-16T05:30:15;22.50;99.90
25570;DHT22;17955;45.542;9.238;2022-08-16T05:32:43;22.80;99.90
25570;DHT22;17955;45.542;9.238;2022-08-16T05:35:12;23.30;99.90
25570;DHT22;17955;45.542;9.238;2022-08-16T05:37:49;23.40;99.90
25570;DHT22;17955;45.542;9.238;2022-08-16T05:40:17;23.60;99.90
25570;DHT22;17955;45.542;9.238;2022-08-16T05:42:44;23.70;99.90
25570;DHT22;17955;45.542;9.238;2022-08-16T05:45:11;24.10;99.90
25570;DHT22;17955;45.542;9.238;2022-08-16T05:47:41;23.80;99.90
25570;DHT22;17955;45.542;9.238;2022-08-16T05:50:09;23.90;99.90
25570;DHT22;17955;45.542;9.238;2022-08-16T05:52:36;23.50;99.90
25570;DHT22;17955;45.542;9.238;2022-08-16T05:55:05;23.20;99.90
25570;DHT22;17955;45.542;9.238;2022-08-16T05:57:34;23.10;99.90
25570;DHT22;17955;45.542;9.238;2022-08-16T06:00:01;23.00;99.90
25570;DHT22;17955;45.542;9.238;2022-08-16T06:02:38;23.00;99.90
25570;DHT22;17955;45.542;9.238;2022-08-16T06:05:16;23.00;99.90
25570;DHT22;17955;45.542;9.238;2022-08-16T06:07:44;23.00;99.90
25570;DHT22;17955;45.542;9.238;2022-08-16T06:10:21;23.00;99.90
25570;DHT22;17955;45.542;9.238;2022-08-16T06:12:49;23.10;99.90
25570;DHT22;17955;45.542;9.238;2022-08-16T06:15:19;22.70;99.90
25570;DHT22;17955;45.542;9.238;2022-08-16T06:17:46;23.30;99.90
25570;DHT22;17955;45.542;9.238;2022-08-16T06:20:20;23.20;99.90
25570;DHT22;17955;45.542;9.238;2022-08-16T06:22:48;23.40;99.90
25570;DHT22;17955;45.542;9.238;2022-08-16T06:25:16;23.60;99.90
25570;DHT22;17955;45.542;9.238;2022-08-16T06:27:43;23.90;99.90
25570;DHT22;17955;45.542;9.238;2022-08-16T06:30:11;25.40;99.90
25570;DHT22;17955;45.542;9.238;2022-08-16T06:32:40;24.40;99.90
25570;DHT22;17955;45.542;9.238;2022-08-16T06:35:08;25.10;99.90
25570;DHT22;17955;45.542;9.238;2022-08-16T06:37:38;24.90;99.90
25570;DHT22;17955;45.542;9.238;2022-08-16T06:40:10;24.50;99.90
25570;DHT22;17955;45.542;9.238;2022-08-16T06:42:42;24.40;99.90
25570;DHT22;17955;45.542;9.238;2022-08-16T06:45:29;24.20;99.90
25570;DHT22;17955;45.542;9.238;2022-08-16T06:48:03;24.20;99.90
25570;DHT22;17955;45.542;9.238;2022-08-16T06:50:30;24.50;99.90
25570;DHT22;17955;45.542;9.238;2022-08-16T06:53:03;24.70;99.90
25570;DHT22;17955;45.542;9.238;2022-08-16T06:55:33;25.00;99.90
25570;DHT22;17955;45.542;9.238;2022-08-16T06:58:02;25.70;99.90
25570;DHT22;17955;45.542;9.238;2022-08-16T07:00:29;25.80;99.90
25570;DHT22;17955;45.542;9.238;2022-08-16T07:03:05;25.90;99.90
25570;DHT22;17955;45.542;9.238;2022-08-16T07:05:32;26.30;99.90
25570;DHT22;17955;45.542;9.238;2022-08-16T07:08:21;26.40;99.90
25570;DHT22;17955;45.542;9.238;2022-08-16T07:10:49;26.20;99.90
25570;DHT22;17955;45.542;9.238;2022-08-16T07:13:17;26.30;99.90
25570;DHT22;17955;45.542;9.238;2022-08-16T07:15:45;26.30;99.90
25570;DHT22;17955;45.542;9.238;2022-08-16T07:18:15;26.20;99.90
25570;DHT22;17955;45.542;9.238;2022-08-16T07:20:45;26.00;99.90
25570;DHT22;17955;45.542;9.238;2022-08-16T07:23:12;25.90;99.90
25570;DHT22;17955;45.542;9.238;2022-08-16T07:25:47;25.80;99.90
25570;DHT22;17955;45.542;9.238;2022-08-16T07:28:16;26.20;99.90
25570;DHT22;17955;45.542;9.238;2022-08-16T07:30:44;26.40;99.90
25570;DHT22;17955;45.542;9.238;2022-08-16T07:33:18;26.60;99.90
25570;DHT22;17955;45.542;9.238;2022-08-16T07:35:46;26.40;99.90
25570;DHT22;17955;45.542;9.238;2022-08-16T07:38:13;26.50;99.90
25570;DHT22;17955;45.542;9.238;2022-08-16T07:40:49;26.50;99.90
25570;DHT22;17955;45.542;9.238;2022-08-16T07:43:16;26.40;99.90
25570;DHT22;17955;45.542;9.238;2022-08-16T07:45:43;26.20;99.90
25570;DHT22;17955;45.542;9.238;2022-08-16T07:48:10;26.10;99.90
25570;DHT22;17955;45.542;9.238;2022-08-16T07:50:40;26.10;99.90
25570;DHT22;17955;45.542;9.238;2022-08-16T07:53:08;26.20;99.90
25570;DHT22;17955;45.542;9.238;2022-08-16T07:55:35;26.30;99.90
25570;DHT22;17955;45.542;9.238;2022-08-16T07:58:04;26.30;99.90
25570;DHT22;17955;45.542;9.238;2022-08-16T08:00:34;26.00;99.90
25570;DHT22;17955;45.542;9.238;2022-08-16T08:03:02;26.30;99.90
25570;DHT22;17955;45.542;9.238;2022-08-16T08:05:29;25.70;99.90
25570;DHT22;17955;45.542;9.238;2022-08-16T08:07:57;25.70;99.90
25570;DHT22;17955;45.542;9.238;2022-08-16T08:10:24;25.90;99.90
25570;DHT22;17955;45.542;9.238;2022-08-16T08:12:53;26.00;99.90
25570;DHT22;17955;45.542;9.238;2022-08-16T08:15:24;26.50;99.90
25570;DHT22;17955;45.542;9.238;2022-08-16T08:17:52;26.80;99.90
25570;DHT22;17955;45.542;9.238;2022-08-16T08:20:26;26.90;99.90
25570;DHT22;17955;45.542;9.238;2022-08-16T08:22:59;27.10;99.90
25570;DHT22;17955;45.542;9.238;2022-08-16T08:25:27;27.30;99.90
25570;DHT22;17955;45.542;9.238;2022-08-16T08:27:55;27.40;99.90
25570;DHT22;17955;45.542;9.238;2022-08-16T08:30:26;27.30;99.90
25570;DHT22;17955;45.542;9.238;2022-08-16T08:32:53;27.00;99.90
25570;DHT22;17955;45.542;9.238;2022-08-16T08:35:21;27.00;99.90
25570;DHT22;17955;45.542;9.238;2022-08-16T08:37:48;27.00;99.90
25570;DHT22;17955;45.542;9.238;2022-08-16T08:40:15;27.10;99.90
25570;DHT22;17955;45.542;9.238;2022-08-16T08:42:43;27.20;99.90
25570;DHT22;17955;45.542;9.238;2022-08-16T08:45:12;27.10;99.90
25570;DHT22;17955;45.542;9.238;2022-08-16T08:47:43;27.10;99.90
25570;DHT22;17955;45.542;9.238;2022-08-16T08:50:12;27.00;99.90
25570;DHT22;17955;45.542;9.238;2022-08-16T08:52:40;27.00;99.90
25570;DHT22;17955;45.542;9.238;2022-08-16T08:55:11;27.10;99.90
25570;DHT22;17955;45.542;9.238;2022-08-16T08:57:43;27.20;99.90
25570;DHT22;17955;45.542;9.238;2022-08-16T09:00:18;27.40;99.90
25570;DHT22;17955;45.542;9.238;2022-08-16T09:02:49;27.20;99.90
25570;DHT22;17955;45.542;9.238;2022-08-16T09:05:18;27.30;99.90
25570;DHT22;17955;45.542;9.238;2022-08-16T09:07:47;27.40;99.90
25570;DHT22;17955;45.542;9.238;2022-08-16T09:10:15;27.30;99.90
25570;DHT22;17955;45.542;9.238;2022-08-16T09:12:44;27.10;99.90
25570;DHT22;17955;45.542;9.238;2022-08-16T09:15:23;27.20;99.90
25570;DHT22;17955;45.542;9.238;2022-08-16T09:17:52;27.10;99.90
25570;DHT22;17955;45.542;9.238;2022-08-16T09:20:25;27.30;99.90
25570;DHT22;17955;45.542;9.238;2022-08-16T09:22:54;27.30;99.90
25570;DHT22;17955;45.542;9.238;2022-08-16T09:25:27;27.70;99.90
25570;DHT22;17955;45.542;9.238;2022-08-16T09:27:54;27.50;99.90
25570;DHT22;17955;45.542;9.238;2022-08-16T09:30:21;27.90;99.90
25570;DHT22;17955;45.542;9.238;2022-08-16T09:32:48;28.00;99.90
25570;DHT22;17955;45.542;9.238;2022-08-16T09:35:17;28.00;99.90
25570;DHT22;17955;45.542;9.238;2022-08-16T09:37:47;28.10;99.90
25570;DHT22;17955;45.542;9.238;2022-08-16T09:40:14;28.10;99.90
25570;DHT22;17955;45.542;9.238;2022-08-16T09:42:41;28.20;99.90
25570;DHT22;17955;45.542;9.238;2022-08-16T09:45:09;28.20;99.90
25570;DHT22;17955;45.542;9.238;2022-08-16T09:47:37;28.60;99.90
25570;DHT22;17955;45.542;9.238;2022-08-16T09:50:06;28.50;99.90
25570;DHT22;17955;45.542;9.238;2022-08-16T09:52:35;28.60;99.90
25570;DHT22;17955;45.542;9.238;2022-08-16T09:55:04;28.60;99.90
25570;DHT22;17955;45.542;9.238;2022-08-16T09:57:31;28.60;99.90
25570;DHT22;17955;45.542;9.238;2022-08-16T09:59:58;28.60;99.90
25570;DHT22;17955;45.542;9.238;2022-08-16T10:02:26;28.40;99.90
25570;DHT22;17955;45.542;9.238;2022-08-16T10:04:54;28.30;99.90
25570;DHT22;17955;45.542;9.238;2022-08-16T10:07:21;28.20;99.90
25570;DHT22;17955;45.542;9.238;2022-08-16T10:09:50;28.30;99.90
25570;DHT22;17955;45.542;9.238;2022-08-16T10:12:17;28.30;99.90
25570;DHT22;17955;45.542;9.238;2022-08-16T10:15:02;28.20;99.90
25570;DHT22;17955;45.542;9.238;2022-08-16T10:17:30;28.10;99.90
25570;DHT22;17955;45.542;9.238;2022-08-16T10:19:56;28.20;99.90
25570;DHT22;17955;45.542;9.238;2022-08-16T10:22:23;28.30;99.90
25570;DHT22;17955;45.542;9.238;2022-08-16T10:24:52;28.30;99.90
25570;DHT22;17955;45.542;9.238;2022-08-16T10:27:19;28.30;99.90
25570;DHT22;17955;45.542;9.238;2022-08-16T10:29:46;28.30;99.90
25570;DHT22;17955;45.542;9.238;2022-08-16T10:32:13;28.10;99.90
25570;DHT22;17955;45.542;9.238;2022-08-16T10:34:41;28.40;99.90
25570;DHT22;17955;45.542;9.238;2022-08-16T10:37:08;28.50;99.90
25570;DHT22;17955;45.542;9.238;2022-08-16T10:39:35;28.60;99.90
25570;DHT22;17955;45.542;9.238;2022-08-16T10:42:04;28.70;99.90
25570;DHT22;17955;45.542;9.238;2022-08-16T10:44:31;28.80;99.90
25570;DHT22;17955;45.542;9.238;2022-08-16T10:46:58;28.70;99.90
25570;DHT22;17955;45.542;9.238;2022-08-16T10:49:25;28.70;99.90
25570;DHT22;17955;45.542;9.238;2022-08-16T10:51:52;28.70;99.90
25570;DHT22;17955;45.542;9.238;2022-08-16T10:54:20;28.70;99.90
25570;DHT22;17955;45.542;9.238;2022-08-16T10:56:47;28.80;99.90
25570;DHT22;17955;45.542;9.238;2022-08-16T10:59:16;28.60;99.90
25570;DHT22;17955;45.542;9.238;2022-08-16T11:01:42;28.50;99.90
25570;DHT22;17955;45.542;9.238;2022-08-16T11:04:10;28.50;99.90
25570;DHT22;17955;45.542;9.238;2022-08-16T11:06:38;28.60;99.90
25570;DHT22;17955;45.542;9.238;2022-08-16T11:09:05;28.30;99.90
25570;DHT22;17955;45.542;9.238;2022-08-16T11:11:32;28.70;99.90
25570;DHT22;17955;45.542;9.238;2022-08-16T11:13:59;28.70;99.90
25570;DHT22;17955;45.542;9.238;2022-08-16T11:16:27;28.60;99.90
25570;DHT22;17955;45.542;9.238;2022-08-16T11:18:55;28.90;99.90
25570;DHT22;17955;45.542;9.238;2022-08-16T11:21:22;29.00;99.90
25570;DHT22;17955;45.542;9.238;2022-08-16T11:23:50;29.20;99.90
25570;DHT22;17955;45.542;9.238;2022-08-16T11:26:18;29.20;99.90
25570;DHT22;17955;45.542;9.238;2022-08-16T11:28:45;29.70;99.90
25570;DHT22;17955;45.542;9.238;2022-08-16T11:31:13;29.20;99.90
25570;DHT22;17955;45.542;9.238;2022-08-16T11:33:41;29.30;99.90
25570;DHT22;17955;45.542;9.238;2022-08-16T11:36:08;29.20;99.90
25570;DHT22;17955;45.542;9.238;2022-08-16T11:38:35;29.00;99.90
25570;DHT22;17955;45.542;9.238;2022-08-16T11:41:03;29.00;99.90
25570;DHT22;17955;45.542;9.238;2022-08-16T11:43:33;28.90;99.90
25570;DHT22;17955;45.542;9.238;2022-08-16T11:46:04;28.70;99.90
25570;DHT22;17955;45.542;9.238;2022-08-16T11:48:32;28.80;99.90
25570;DHT22;17955;45.542;9.238;2022-08-16T11:51:01;28.90;99.90
25570;DHT22;17955;45.542;9.238;2022-08-16T11:53:30;29.20;99.90
25570;DHT22;17955;45.542;9.238;2022-08-16T11:55:58;28.10;99.90
25570;DHT22;17955;45.542;9.238;2022-08-16T11:58:27;29.50;99.90
25570;DHT22;17955;45.542;9.238;2022-08-16T12:00:55;29.70;99.90
25570;DHT22;17955;45.542;9.238;2022-08-16T12:03:26;29.80;99.90
25570;DHT22;17955;45.542;9.238;2022-08-16T12:05:53;29.80;99.90
25570;DHT22;17955;45.542;9.238;2022-08-16T12:08:23;29.80;99.90
25570;DHT22;17955;45.542;9.238;2022-08-16T12:10:50;29.90;99.90
25570;DHT22;17955;45.542;9.238;2022-08-16T12:13:17;29.90;99.60
25570;DHT22;17955;45.542;9.238;2022-08-16T12:15:44;30.00;99.40
25570;DHT22;17955;45.542;9.238;2022-08-16T12:18:11;29.70;99.90
25570;DHT22;17955;45.542;9.238;2022-08-16T12:20:41;29.40;99.90
25570;DHT22;17955;45.542;9.238;2022-08-16T12:23:08;29.40;99.90
25570;DHT22;17955;45.542;9.238;2022-08-16T12:25:37;29.40;99.90
25570;DHT22;17955;45.542;9.238;2022-08-16T12:28:05;29.30;99.90
25570;DHT22;17955;45.542;9.238;2022-08-16T12:30:35;29.20;99.90
25570;DHT22;17955;45.542;9.238;2022-08-16T12:33:04;29.30;99.90
25570;DHT22;17955;45.542;9.238;2022-08-16T12:35:36;29.40;99.90
25570;DHT22;17955;45.542;9.238;2022-08-16T12:38:05;29.50;99.90
25570;DHT22;17955;45.542;9.238;2022-08-16T12:40:35;29.50;99.90
25570;DHT22;17955;45.542;9.238;2022-08-16T12:43:06;29.70;99.60
25570;DHT22;17955;45.542;9.238;2022-08-16T12:45:36;29.70;99.40
25570;DHT22;17955;45.542;9.238;2022-08-16T12:48:04;29.70;99.30
25570;DHT22;17955;45.542;9.238;2022-08-16T12:50:49;29.80;99.10
25570;DHT22;17955;45.542;9.238;2022-08-16T12:53:16;29.70;99.00
25570;DHT22;17955;45.542;9.238;2022-08-16T12:55:45;29.80;98.90
25570;DHT22;17955;45.542;9.238;2022-08-16T12:58:14;29.80;98.50
25570;DHT22;17955;45.542;9.238;2022-08-16T13:00:41;29.70;98.00
25570;DHT22;17955;45.542;9.238;2022-08-16T13:03:09;29.80;98.60
25570;DHT22;17955;45.542;9.238;2022-08-16T13:05:38;29.70;98.50
25570;DHT22;17955;45.542;9.238;2022-08-16T13:08:07;29.70;99.60
25570;DHT22;17955;45.542;9.238;2022-08-16T13:10:36;29.70;99.00
25570;DHT22;17955;45.542;9.238;2022-08-16T13:13:04;29.70;98.90
25570;DHT22;17955;45.542;9.238;2022-08-16T13:15:33;29.80;99.10
25570;DHT22;17955;45.542;9.238;2022-08-16T13:18:00;29.80;98.70
25570;DHT22;17955;45.542;9.238;2022-08-16T13:20:27;29.90;98.10
25570;DHT22;17955;45.542;9.238;2022-08-16T13:22:59;30.20;98.20
25570;DHT22;17955;45.542;9.238;2022-08-16T13:25:27;30.00;98.00
25570;DHT22;17955;45.542;9.238;2022-08-16T13:27:56;30.00;98.30
25570;DHT22;17955;45.542;9.238;2022-08-16T13:30:24;29.90;98.40
25570;DHT22;17955;45.542;9.238;2022-08-16T13:32:53;29.70;97.90
25570;DHT22;17955;45.542;9.238;2022-08-16T13:35:21;29.80;98.20
25570;DHT22;17955;45.542;9.238;2022-08-16T13:37:48;30.10;98.00
25570;DHT22;17955;45.542;9.238;2022-08-16T13:40:15;29.90;97.90
25570;DHT22;17955;45.542;9.238;2022-08-16T13:42:42;30.00;97.20
25570;DHT22;17955;45.542;9.238;2022-08-16T13:45:11;29.90;97.20
25570;DHT22;17955;45.542;9.238;2022-08-16T13:47:39;30.10;96.70
25570;DHT22;17955;45.542;9.238;2022-08-16T13:50:09;30.00;96.90
25570;DHT22;17955;45.542;9.238;2022-08-16T13:52:36;30.30;96.70
25570;DHT22;17955;45.542;9.238;2022-08-16T13:55:05;30.20;96.70
25570;DHT22;17955;45.542;9.238;2022-08-16T13:57:32;30.20;96.30
25570;DHT22;17955;45.542;9.238;2022-08-16T13:59:59;30.10;95.80
25570;DHT22;17955;45.542;9.238;2022-08-16T14:02:26;30.20;96.30
25570;DHT22;17955;45.542;9.238;2022-08-16T14:04:54;30.20;95.60
25570;DHT22;17955;45.542;9.238;2022-08-16T14:07:22;30.00;95.60
25570;DHT22;17955;45.542;9.238;2022-08-16T14:09:49;30.30;95.90
25570;DHT22;17955;45.542;9.238;2022-08-16T14:12:19;30.30;95.70
25570;DHT22;17955;45.542;9.238;2022-08-16T14:14:48;30.20;96.00
25570;DHT22;17955;45.542;9.238;2022-08-16T14:17:17;30.30;95.40
25570;DHT22;17955;45.542;9.238;2022-08-16T14:19:45;30.10;95.80
25570;DHT22;17955;45.542;9.238;2022-08-16T14:22:16;30.20;95.70
25570;DHT22;17955;45.542;9.238;2022-08-16T14:24:46;30.30;95.90
25570;DHT22;17955;45.542;9.238;2022-08-16T14:27:15;30.10;95.60
25570;DHT22;17955;45.542;9.238;2022-08-16T14:29:42;31.50;96.00
25570;DHT22;17955;45.542;9.238;2022-08-16T14:32:09;30.20;95.80
25570;DHT22;17955;45.542;9.238;2022-08-16T14:34:36;30.20;95.90
25570;DHT22;17955;45.542;9.238;2022-08-16T14:37:03;29.50;95.60
25570;DHT22;17955;45.542;9.238;2022-08-16T14:39:31;30.10;95.80
25570;DHT22;17955;45.542;9.238;2022-08-16T14:42:05;30.20;95.70
25570;DHT22;17955;45.542;9.238;2022-08-16T14:44:33;30.40;95.70
25570;DHT22;17955;45.542;9.238;2022-08-16T14:47:00;30.40;95.70
25570;DHT22;17955;45.542;9.238;2022-08-16T14:49:27;30.40;95.80
25570;DHT22;17955;45.542;9.238;2022-08-16T14:51:59;30.30;95.80
25570;DHT22;17955;45.542;9.238;2022-08-16T14:54:26;30.40;95.80
25570;DHT22;17955;45.542;9.238;2022-08-16T14:56:53;30.40;95.90
25570;DHT22;17955;45.542;9.238;2022-08-16T14:59:21;30.30;95.40
25570;DHT22;17955;45.542;9.238;2022-08-16T15:01:50;30.40;95.50
25570;DHT22;17955;45.542;9.238;2022-08-16T15:04:18;29.60;95.40
25570;DHT22;17955;45.542;9.238;2022-08-16T15:06:45;30.30;95.30
25570;DHT22;17955;45.542;9.238;2022-08-16T15:09:12;30.30;95.40
25570;DHT22;17955;45.542;9.238;2022-08-16T15:11:39;30.40;95.20
25570;DHT22;17955;45.542;9.238;2022-08-16T15:14:06;29.50;94.40
25570;DHT22;17955;45.542;9.238;2022-08-16T15:16:35;30.40;95.00
25570;DHT22;17955;45.542;9.238;2022-08-16T15:19:03;30.40;94.60
25570;DHT22;17955;45.542;9.238;2022-08-16T15:21:30;30.30;94.70
25570;DHT22;17955;45.542;9.238;2022-08-16T15:23:58;30.20;94.80
25570;DHT22;17955;45.542;9.238;2022-08-16T15:26:25;30.50;94.80
25570;DHT22;17955;45.542;9.238;2022-08-16T15:28:53;30.20;94.90
25570;DHT22;17955;45.542;9.238;2022-08-16T15:31:24;30.20;94.90
25570;DHT22;17955;45.542;9.238;2022-08-16T15:33:53;30.10;95.10
25570;DHT22;17955;45.542;9.238;2022-08-16T15:36:32;30.30;95.20
25570;DHT22;17955;45.542;9.238;2022-08-16T15:38:59;30.30;93.90
25570;DHT22;17955;45.542;9.238;2022-08-16T15:41:57;30.50;95.40
25570;DHT22;17955;45.542;9.238;2022-08-16T15:44:25;30.20;95.30
25570;DHT22;17955;45.542;9.238;2022-08-16T15:46:53;30.30;95.10
25570;DHT22;17955;45.542;9.238;2022-08-16T15:49:22;30.30;94.60
25570;DHT22;17955;45.542;9.238;2022-08-16T15:51:49;30.30;94.60